Time;durP1;ratioP1;P1;durP2;ratioP2;P2;SDS_P1;SDS_P2;PMS_P1;PMS_P2;Temp;Humidity;BMP_temperature;BMP_pressure;BME280_temperature;BME280_humidity;BME280_pressure;Samples;Min_cycle;Max_cycle;Signal;HPM_P1;HPM_P2
2024/02/11 00:00:20;;;;;;;15.88;5.18;;;;;;;;;;10244036;28;20038;-61
2024/02/11 00:05:21;;;;;;;10.68;4.05;;;;;;;;;;10244624;28;20035;-61
2024/02/11 00:10:23;;;;;;;15.38;4.85;;;;;;;;;;10241977;28;20043;-61
2024/02/11 00:15:24;;;;;;;10.27;3.63;;;;;;;;;;10240288;28;20475;-61
2024/02/11 00:20:27;;;;;;;14.85;5.50;;;;;;;;;;10246213;28;20035;-61
2024/02/11 00:25:30;;;;;;;14.50;4.55;;;;;;;;;;10244401;28;20118;-61
2024/02/11 00:30:30;;;;;;;13.02;4.47;;;;;;;;;;10239354;28;20031;-61
2024/02/11 00:35:31;;;;;;;7.40;3.25;;;;;;;;;;10245364;28;20034;-61
2024/02/11 00:40:32;;;;;;;9.57;4.35;;;;;;;;;;10244479;28;20519;-61
2024/02/11 00:45:35;;;;;;;13.60;4.35;;;;;;;;;;10244639;28;20031;-61
2024/02/11 00:50:36;;;;;;;11.20;3.78;;;;;;;;;;10227787;28;20038;-61
2024/02/11 00:55:37;;;;;;;13.35;4.25;;;;;;;;;;10243607;28;20034;-60
2024/02/11 01:00:37;;;;;;;11.32;3.75;;;;;;;;;;10242723;28;20494;-60
2024/02/11 01:05:38;;;;;;;8.45;3.60;;;;;;;;;;10243371;28;20031;-61
2024/02/11 01:10:38;;;;;;;10.85;3.50;;;;;;;;;;10242713;28;20043;-61
2024/02/11 01:15:39;;;;;;;16.48;3.72;;;;;;;;;;10250662;28;20042;-61
2024/02/11 01:20:40;;;;;;;9.75;3.33;;;;;;;;;;10244364;28;20031;-61
2024/02/11 01:25:40;;;;;;;14.13;3.67;;;;;;;;;;10242229;28;20034;-61
2024/02/11 01:30:41;;;;;;;7.45;3.53;;;;;;;;;;10237725;28;20035;-61
2024/02/11 01:35:41;;;;;;;12.55;4.10;;;;;;;;;;10243571;28;20027;-60
2024/02/11 01:40:42;;;;;;;7.90;3.25;;;;;;;;;;10242466;28;20031;-61
2024/02/11 01:45:45;;;;;;;9.73;3.65;;;;;;;;;;10233128;28;20035;-61
2024/02/11 01:50:52;;;;;;;9.55;3.17;;;;;;;;;;10244466;28;20382;-61
2024/02/11 01:55:54;;;;;;;17.98;3.78;;;;;;;;;;10238249;28;20273;-61
2024/02/11 02:00:55;;;;;;;11.38;4.00;;;;;;;;;;10252133;28;20471;-61
2024/02/11 02:05:56;;;;;;;21.77;3.88;;;;;;;;;;10255009;28;20035;-61
2024/02/11 02:10:57;;;;;;;8.95;3.42;;;;;;;;;;10245579;28;20042;-61
2024/02/11 02:15:58;;;;;;;9.43;3.47;;;;;;;;;;10250829;28;20027;-60
2024/02/11 02:20:59;;;;;;;11.90;3.65;;;;;;;;;;10240189;28;20058;-60
2024/02/11 02:26:07;;;;;;;11.32;3.30;;;;;;;;;;10248937;28;20031;-60
2024/02/11 02:31:08;;;;;;;8.37;3.43;;;;;;;;;;10244318;28;20047;-60
2024/02/11 02:36:10;;;;;;;16.13;3.35;;;;;;;;;;10247022;28;20046;-60
2024/02/11 02:41:11;;;;;;;10.07;2.83;;;;;;;;;;10249172;28;20126;-61
2024/02/11 02:46:13;;;;;;;5.20;3.10;;;;;;;;;;10248800;28;20086;-61
2024/02/11 02:51:15;;;;;;;6.53;2.70;;;;;;;;;;10248834;28;20023;-61
2024/02/11 02:56:19;;;;;;;7.00;2.83;;;;;;;;;;10249195;28;20074;-61
2024/02/11 03:01:24;;;;;;;8.90;3.30;;;;;;;;;;10247278;28;20030;-61
2024/02/11 03:06:25;;;;;;;6.82;2.85;;;;;;;;;;10248301;28;20031;-61
2024/02/11 03:11:26;;;;;;;7.20;2.55;;;;;;;;;;10248540;28;20070;-61
2024/02/11 03:16:27;;;;;;;7.07;3.17;;;;;;;;;;10248595;28;20046;-61
2024/02/11 03:21:27;;;;;;;5.90;2.40;;;;;;;;;;10248054;28;20036;-61
2024/02/11 03:26:28;;;;;;;8.25;2.85;;;;;;;;;;10247636;28;20045;-61
2024/02/11 03:31:29;;;;;;;8.48;2.67;;;;;;;;;;10248378;28;20031;-60
2024/02/11 03:36:29;;;;;;;7.55;2.58;;;;;;;;;;10247205;28;20117;-61
2024/02/11 03:41:31;;;;;;;9.63;3.40;;;;;;;;;;10242796;28;20063;-61
2024/02/11 03:46:32;;;;;;;5.30;2.45;;;;;;;;;;10247774;28;20035;-60
2024/02/11 03:51:32;;;;;;;7.50;2.50;;;;;;;;;;10246996;28;20468;-60
2024/02/11 03:56:35;;;;;;;5.50;2.20;;;;;;;;;;10245449;28;20487;-61
2024/02/11 04:01:36;;;;;;;6.22;2.75;;;;;;;;;;10240819;28;20035;-61
2024/02/11 04:06:37;;;;;;;4.82;2.47;;;;;;;;;;10246600;28;20035;-60
2024/02/11 04:11:38;;;;;;;7.03;2.75;;;;;;;;;;10245227;28;20439;-61
2024/02/11 04:16:43;;;;;;;6.93;3.30;;;;;;;;;;10245380;28;20026;-60
2024/02/11 04:21:44;;;;;;;6.72;2.80;;;;;;;;;;10245382;28;20035;-61
2024/02/11 04:26:44;;;;;;;3.80;2.28;;;;;;;;;;10244715;28;20074;-60
2024/02/11 04:31:45;;;;;;;4.68;2.20;;;;;;;;;;10245041;28;20028;-61
2024/02/11 04:36:48;;;;;;;6.65;2.42;;;;;;;;;;10244736;28;20502;-61
2024/02/11 04:41:48;;;;;;;4.72;2.40;;;;;;;;;;10243669;28;20028;-60
2024/02/11 04:46:49;;;;;;;6.95;2.28;;;;;;;;;;10244680;28;20039;-60
2024/02/11 04:51:49;;;;;;;6.63;2.63;;;;;;;;;;10244687;28;20023;-61
2024/02/11 04:56:50;;;;;;;5.05;2.15;;;;;;;;;;10243813;28;20027;-60
2024/02/11 05:01:51;;;;;;;5.93;2.67;;;;;;;;;;10243800;28;20034;-61
2024/02/11 05:06:52;;;;;;;6.43;2.40;;;;;;;;;;10243575;28;20038;-60
2024/02/11 05:11:54;;;;;;;4.50;2.15;;;;;;;;;;10244257;28;20034;-61
2024/02/11 05:16:55;;;;;;;3.45;2.03;;;;;;;;;;10244189;28;20036;-61
2024/02/11 05:21:55;;;;;;;3.53;2.20;;;;;;;;;;10243822;28;20038;-61
2024/02/11 05:26:56;;;;;;;4.40;2.10;;;;;;;;;;10244567;28;20051;-61
2024/02/11 05:31:57;;;;;;;3.45;1.80;;;;;;;;;;10251151;28;20038;-61
2024/02/11 05:36:59;;;;;;;2.72;1.70;;;;;;;;;;10244530;28;20043;-61
2024/02/11 05:42:00;;;;;;;3.45;2.13;;;;;;;;;;10250328;28;20199;-61
2024/02/11 05:47:01;;;;;;;2.75;2.00;;;;;;;;;;10251178;28;20573;-61
2024/02/11 05:52:03;;;;;;;6.88;2.42;;;;;;;;;;10250730;28;20063;-61
2024/02/11 05:57:06;;;;;;;5.20;1.98;;;;;;;;;;10261715;28;20383;-60
2024/02/11 06:02:06;;;;;;;6.07;2.13;;;;;;;;;;10251415;28;20387;-61
2024/02/11 06:07:10;;;;;;;3.03;2.13;;;;;;;;;;10249629;28;20031;-61
2024/02/11 06:12:12;;;;;;;3.70;2.00;;;;;;;;;;10245288;28;20443;-61
2024/02/11 06:17:13;;;;;;;5.75;2.05;;;;;;;;;;10249801;28;20042;-61
2024/02/11 06:22:13;;;;;;;4.15;2.10;;;;;;;;;;10250633;28;20062;-61
2024/02/11 06:27:14;;;;;;;3.25;1.95;;;;;;;;;;10241070;28;20451;-60
2024/02/11 06:32:15;;;;;;;4.30;1.88;;;;;;;;;;10249714;28;20175;-60
2024/02/11 06:37:15;;;;;;;2.67;1.60;;;;;;;;;;10245351;28;20043;-60
2024/02/11 06:42:16;;;;;;;3.22;1.75;;;;;;;;;;10242566;28;20031;-60
2024/02/11 06:47:18;;;;;;;7.07;1.77;;;;;;;;;;10250303;28;20034;-60
2024/02/11 06:52:18;;;;;;;7.38;1.88;;;;;;;;;;10246976;28;20039;-60
2024/02/11 06:57:23;;;;;;;2.53;2.03;;;;;;;;;;10248163;28;20031;-60
2024/02/11 07:02:24;;;;;;;4.22;1.60;;;;;;;;;;10248634;28;20039;-61
2024/02/11 07:07:25;;;;;;;4.50;2.00;;;;;;;;;;10248127;28;20037;-61
2024/02/11 07:12:25;;;;;;;2.70;1.85;;;;;;;;;;10249030;28;20434;-61
2024/02/11 07:17:30;;;;;;;2.58;1.63;;;;;;;;;;10242139;28;20082;-61
2024/02/11 07:22:30;;;;;;;3.15;1.92;;;;;;;;;;10248360;28;20047;-61
2024/02/11 07:27:31;;;;;;;4.75;1.70;;;;;;;;;;10235680;28;20385;-60
2024/02/11 07:32:32;;;;;;;3.17;1.73;;;;;;;;;;10247853;28;20047;-60
2024/02/11 07:37:33;;;;;;;1.98;1.55;;;;;;;;;;10238811;28;20430;-61
2024/02/11 07:42:33;;;;;;;1.77;1.48;;;;;;;;;;10246107;28;20039;-61
2024/02/11 07:47:34;;;;;;;4.47;1.77;;;;;;;;;;10247232;28;20031;-61
2024/02/11 07:52:35;;;;;;;3.05;1.40;;;;;;;;;;10236427;28;20035;-61
2024/02/11 07:57:35;;;;;;;2.75;1.77;;;;;;;;;;10246820;28;20031;-61
2024/02/11 08:02:36;;;;;;;5.38;1.50;;;;;;;;;;10246397;28;20031;-61
2024/02/11 08:07:36;;;;;;;2.15;1.58;;;;;;;;;;10245962;28;20027;-61
2024/02/11 08:12:37;;;;;;;3.55;1.73;;;;;;;;;;10244930;28;20043;-61
2024/02/11 08:17:41;;;;;;;2.30;1.38;;;;;;;;;;10245366;28;20035;-61
2024/02/11 08:22:42;;;;;;;5.22;1.98;;;;;;;;;;10236844;28;20031;-61
2024/02/11 08:27:42;;;;;;;2.75;1.65;;;;;;;;;;10242784;28;20034;-61
2024/02/11 08:32:43;;;;;;;2.47;1.60;;;;;;;;;;10246150;28;20422;-61
2024/02/11 08:37:44;;;;;;;3.00;1.48;;;;;;;;;;10243403;28;20105;-61
2024/02/11 08:42:44;;;;;;;3.28;2.03;;;;;;;;;;10244301;28;20435;-61
2024/02/11 08:47:45;;;;;;;1.98;1.50;;;;;;;;;;10244844;28;20082;-61
2024/02/11 08:52:48;;;;;;;1.70;1.38;;;;;;;;;;10245134;28;20027;-61
2024/02/11 08:57:49;;;;;;;3.45;1.75;;;;;;;;;;10244238;28;20070;-60
2024/02/11 09:02:50;;;;;;;2.10;1.48;;;;;;;;;;10243516;28;20035;-60
2024/02/11 09:07:50;;;;;;;3.42;1.83;;;;;;;;;;10243508;28;20031;-60
2024/02/11 09:12:51;;;;;;;2.17;1.55;;;;;;;;;;10244274;28;20054;-60
2024/02/11 09:17:51;;;;;;;2.38;1.70;;;;;;;;;;10244407;28;20035;-61
2024/02/11 09:22:52;;;;;;;2.22;1.33;;;;;;;;;;10242979;28;20031;-61
2024/02/11 09:27:53;;;;;;;2.10;1.40;;;;;;;;;;10243705;28;20039;-61
2024/02/11 09:32:54;;;;;;;4.97;1.30;;;;;;;;;;10243119;28;20031;-61
2024/02/11 09:37:54;;;;;;;2.85;1.30;;;;;;;;;;10242942;28;20047;-61
2024/02/11 09:42:57;;;;;;;2.55;1.55;;;;;;;;;;10243496;28;20031;-62
2024/02/11 09:47:58;;;;;;;1.85;1.13;;;;;;;;;;10242362;28;20039;-63
2024/02/11 09:52:59;;;;;;;5.25;1.60;;;;;;;;;;10242418;28;20325;-60
2024/02/11 09:57:59;;;;;;;3.03;1.40;;;;;;;;;;10242161;28;20226;-59
2024/02/11 10:03:02;;;;;;;5.38;1.50;;;;;;;;;;10241816;28;20050;-60
2024/02/11 10:08:13;;;;;;;7.72;1.80;;;;;;;;;;10241070;28;20057;-61
2024/02/11 10:13:20;;;;;;;6.13;1.80;;;;;;;;;;10246482;28;20642;-61
2024/02/11 10:18:20;;;;;;;3.47;1.40;;;;;;;;;;10250823;28;20032;-61
2024/02/11 10:23:24;;;;;;;11.30;1.50;;;;;;;;;;10250874;28;20998;-61
2024/02/11 10:28:25;;;;;;;3.38;1.50;;;;;;;;;;10249680;28;20106;-61
2024/02/11 10:33:26;;;;;;;7.00;1.95;;;;;;;;;;10238504;28;20037;-60
2024/02/11 10:38:27;;;;;;;6.63;1.50;;;;;;;;;;10231471;28;20057;-59
2024/02/11 10:43:29;;;;;;;13.55;1.70;;;;;;;;;;10247508;28;20027;-60
2024/02/11 10:48:30;;;;;;;6.68;1.40;;;;;;;;;;10247260;28;20109;-60
2024/02/11 10:53:35;;;;;;;6.57;1.60;;;;;;;;;;10247123;28;20440;-60
2024/02/11 10:58:46;;;;;;;6.45;1.50;;;;;;;;;;10245601;28;20035;-59
2024/02/11 11:03:49;;;;;;;4.47;2.08;;;;;;;;;;10244581;28;20101;-59
2024/02/11 11:08:51;;;;;;;13.65;2.00;;;;;;;;;;10242736;28;20031;-60
2024/02/11 11:13:56;;;;;;;4.32;1.60;;;;;;;;;;10244063;28;21188;-60
2024/02/11 11:19:13;;;;;;;3.28;2.17;;;;;;;;;;10244393;28;20123;-60
2024/02/11 11:24:16;;;;;;;3.60;1.48;;;;;;;;;;10244283;28;20050;-60
2024/02/11 11:29:17;;;;;;;3.80;1.60;;;;;;;;;;10244117;28;20042;-60
2024/02/11 11:34:18;;;;;;;3.30;1.27;;;;;;;;;;10247762;28;20042;-60
2024/02/11 11:39:20;;;;;;;3.78;1.30;;;;;;;;;;10270085;28;20448;-60
2024/02/11 11:44:21;;;;;;;3.47;1.58;;;;;;;;;;10255483;28;20027;-60
2024/02/11 11:49:21;;;;;;;4.03;1.83;;;;;;;;;;10244200;28;20031;-59
2024/02/11 11:54:22;;;;;;;6.47;1.70;;;;;;;;;;10247263;28;20086;-60
2024/02/11 11:59:24;;;;;;;3.58;1.63;;;;;;;;;;10247651;28;20032;-60
2024/02/11 12:04:29;;;;;;;2.60;1.35;;;;;;;;;;10253845;28;20195;-60
2024/02/11 12:09:30;;;;;;;3.63;1.55;;;;;;;;;;10244062;28;20040;-60
2024/02/11 12:14:31;;;;;;;2.40;1.35;;;;;;;;;;10245487;28;20027;-60
2024/02/11 12:19:39;;;;;;;5.88;1.88;;;;;;;;;;10246579;28;20398;-60
2024/02/11 12:24:43;;;;;;;1.80;1.52;;;;;;;;;;10243232;28;20375;-60
2024/02/11 12:29:56;;;;;;;4.78;1.67;;;;;;;;;;10243895;28;20031;-60
2024/02/11 12:34:58;;;;;;;3.63;1.55;;;;;;;;;;10242365;28;20043;-59
2024/02/11 12:39:59;;;;;;;8.30;1.63;;;;;;;;;;10242064;28;20066;-60
2024/02/11 12:44:59;;;;;;;2.33;1.40;;;;;;;;;;10242105;28;20063;-59
2024/02/11 12:50:00;;;;;;;8.75;1.60;;;;;;;;;;10236078;28;20040;-60
2024/02/11 12:55:01;;;;;;;4.55;1.60;;;;;;;;;;10237877;28;20024;-59
2024/02/11 13:00:01;;;;;;;2.55;1.48;;;;;;;;;;10244493;28;20032;-60
2024/02/11 13:05:02;;;;;;;6.80;1.80;;;;;;;;;;10243463;28;20043;-59
2024/02/11 13:10:03;;;;;;;5.70;1.77;;;;;;;;;;10241333;28;20035;-60
2024/02/11 13:15:10;;;;;;;2.17;1.40;;;;;;;;;;10241859;28;20551;-60
2024/02/11 13:20:13;;;;;;;1.83;1.42;;;;;;;;;;10231313;28;20042;-60
2024/02/11 13:25:15;;;;;;;2.63;1.58;;;;;;;;;;10238075;28;20049;-60
2024/02/11 13:30:17;;;;;;;3.15;1.40;;;;;;;;;;10244752;28;20407;-59
2024/02/11 13:35:18;;;;;;;4.53;1.67;;;;;;;;;;10241412;28;20132;-59
2024/02/11 13:40:18;;;;;;;2.05;1.30;;;;;;;;;;10205175;28;20055;-59
2024/02/11 13:45:19;;;;;;;5.93;1.50;;;;;;;;;;10204780;29;20079;-59
2024/02/11 13:50:20;;;;;;;1.40;0.93;;;;;;;;;;10205984;29;20043;-60
2024/02/11 13:55:20;;;;;;;1.85;1.35;;;;;;;;;;10206724;29;20079;-61
2024/02/11 14:00:24;;;;;;;1.92;1.42;;;;;;;;;;10209938;29;20432;-61
2024/02/11 14:05:24;;;;;;;2.70;1.40;;;;;;;;;;10211382;29;20110;-60
2024/02/11 14:10:25;;;;;;;2.15;1.33;;;;;;;;;;10209467;29;20028;-60
2024/02/11 14:15:26;;;;;;;5.00;1.33;;;;;;;;;;10210502;29;20415;-61
2024/02/11 14:20:26;;;;;;;4.38;1.35;;;;;;;;;;10212640;29;20535;-61
2024/02/11 14:25:28;;;;;;;8.18;1.60;;;;;;;;;;10200667;29;20035;-60
2024/02/11 14:30:29;;;;;;;3.60;1.65;;;;;;;;;;10207596;29;20031;-60
2024/02/11 14:35:30;;;;;;;3.60;1.20;;;;;;;;;;10200910;29;20052;-60
2024/02/11 14:40:30;;;;;;;4.55;1.60;;;;;;;;;;10200368;29;20036;-60
2024/02/11 14:45:31;;;;;;;1.63;1.33;;;;;;;;;;10207494;29;20095;-60
2024/02/11 14:50:32;;;;;;;1.45;1.05;;;;;;;;;;10209059;29;20535;-60
2024/02/11 14:55:33;;;;;;;7.10;1.52;;;;;;;;;;10210596;29;20028;-60
2024/02/11 15:00:33;;;;;;;1.83;1.10;;;;;;;;;;10208375;29;20059;-60
2024/02/11 15:05:34;;;;;;;3.38;1.23;;;;;;;;;;10209948;29;20043;-60
2024/02/11 15:10:34;;;;;;;1.92;1.20;;;;;;;;;;10205170;29;20107;-60
2024/02/11 15:15:37;;;;;;;2.90;1.48;;;;;;;;;;10202068;29;20028;-60
2024/02/11 15:20:38;;;;;;;2.03;1.48;;;;;;;;;;10207624;29;20023;-60
2024/02/11 15:25:39;;;;;;;2.72;1.30;;;;;;;;;;10207070;29;20024;-60
2024/02/11 15:30:40;;;;;;;3.08;1.25;;;;;;;;;;10205488;29;20046;-60
2024/02/11 15:35:41;;;;;;;3.35;1.20;;;;;;;;;;10199800;29;20048;-60
2024/02/11 15:40:43;;;;;;;7.40;1.40;;;;;;;;;;10205727;29;20264;-60
2024/02/11 15:45:43;;;;;;;5.22;1.50;;;;;;;;;;10202291;29;20027;-61
2024/02/11 15:50:44;;;;;;;2.53;1.50;;;;;;;;;;10194385;29;20511;-61
2024/02/11 15:55:44;;;;;;;4.32;1.40;;;;;;;;;;10208626;29;20047;-61
2024/02/11 16:00:45;;;;;;;3.05;1.50;;;;;;;;;;10207177;29;20028;-61
2024/02/11 16:05:46;;;;;;;3.30;1.40;;;;;;;;;;10191830;29;20028;-61
2024/02/11 16:10:50;;;;;;;2.47;1.45;;;;;;;;;;10204821;29;20570;-61
2024/02/11 16:15:50;;;;;;;3.88;1.38;;;;;;;;;;10201136;29;20528;-61
2024/02/11 16:20:51;;;;;;;3.58;1.33;;;;;;;;;;10207348;29;20035;-61
2024/02/11 16:25:51;;;;;;;3.40;1.15;;;;;;;;;;10194805;29;20032;-61
2024/02/11 16:30:52;;;;;;;4.13;1.50;;;;;;;;;;10202012;29;20031;-60
2024/02/11 16:35:53;;;;;;;2.35;1.30;;;;;;;;;;10201768;29;20050;-61
2024/02/11 16:40:56;;;;;;;2.60;1.10;;;;;;;;;;10205389;29;20078;-60
2024/02/11 16:45:57;;;;;;;2.15;1.15;;;;;;;;;;10203256;29;20044;-60
2024/02/11 16:50:57;;;;;;;5.28;1.38;;;;;;;;;;10205336;29;20035;-60
2024/02/11 16:55:59;;;;;;;1.58;1.08;;;;;;;;;;10203858;29;20039;-60
2024/02/11 17:01:03;;;;;;;1.42;1.20;;;;;;;;;;10194441;29;20043;-60
2024/02/11 17:06:04;;;;;;;1.30;1.20;;;;;;;;;;10197560;29;20506;-61
2024/02/11 17:11:07;;;;;;;2.10;1.20;;;;;;;;;;10203010;29;20132;-61
2024/02/11 17:16:07;;;;;;;2.00;1.55;;;;;;;;;;10189813;29;20484;-61
2024/02/11 17:21:11;;;;;;;2.05;1.27;;;;;;;;;;10195085;29;20028;-63
2024/02/11 17:26:11;;;;;;;2.75;1.30;;;;;;;;;;10201447;29;20102;-62
2024/02/11 17:31:12;;;;;;;1.42;1.27;;;;;;;;;;10192743;29;20082;-63
2024/02/11 17:36:16;;;;;;;1.63;1.40;;;;;;;;;;10197844;29;20035;-61
2024/02/11 17:41:19;;;;;;;1.70;1.38;;;;;;;;;;10196988;29;20059;-61
2024/02/11 17:46:20;;;;;;;5.47;1.38;;;;;;;;;;10187732;29;20098;-60
2024/02/11 17:51:20;;;;;;;1.80;1.02;;;;;;;;;;10191435;29;20020;-61
2024/02/11 17:56:21;;;;;;;4.53;1.30;;;;;;;;;;10189469;29;20039;-60
2024/02/11 18:01:23;;;;;;;9.50;1.58;;;;;;;;;;10191018;29;20043;-60
2024/02/11 18:06:24;;;;;;;3.85;1.65;;;;;;;;;;10178904;29;20503;-60
2024/02/11 18:11:25;;;;;;;1.33;1.13;;;;;;;;;;10200509;29;20019;-60
2024/02/11 18:16:26;;;;;;;4.72;1.60;;;;;;;;;;10200789;29;20040;-60
2024/02/11 18:21:27;;;;;;;2.75;1.40;;;;;;;;;;10184794;29;20036;-59
2024/02/11 18:26:27;;;;;;;3.85;1.75;;;;;;;;;;10196057;29;20044;-59
2024/02/11 18:31:28;;;;;;;3.83;1.45;;;;;;;;;;10201196;29;20043;-59
2024/02/11 18:36:29;;;;;;;8.00;1.55;;;;;;;;;;10190111;29;20160;-59
2024/02/11 18:41:30;;;;;;;1.33;1.15;;;;;;;;;;10188734;29;20032;-59
2024/02/11 18:46:31;;;;;;;1.73;1.40;;;;;;;;;;10196934;29;20078;-59
2024/02/11 18:51:35;;;;;;;2.55;1.33;;;;;;;;;;10197860;29;20059;-59
2024/02/11 18:56:36;;;;;;;2.17;1.38;;;;;;;;;;10190227;29;20120;-58
2024/02/11 19:01:37;;;;;;;6.95;1.60;;;;;;;;;;10187272;29;20059;-58
2024/02/11 19:06:37;;;;;;;8.85;1.60;;;;;;;;;;10184964;29;20032;-58
2024/02/11 19:11:38;;;;;;;4.32;1.83;;;;;;;;;;10189835;29;21503;-58
2024/02/11 19:16:39;;;;;;;6.55;1.90;;;;;;;;;;10130221;29;20123;-59
2024/02/11 19:21:42;;;;;;;2.25;1.40;;;;;;;;;;10132783;29;20134;-59
2024/02/11 19:26:42;;;;;;;8.05;1.50;;;;;;;;;;10122926;29;20119;-61
2024/02/11 19:31:44;;;;;;;3.92;1.70;;;;;;;;;;10120228;29;20114;-61
2024/02/11 19:36:45;;;;;;;8.65;1.30;;;;;;;;;;10121166;29;20051;-59
2024/02/11 19:41:46;;;;;;;2.60;1.40;;;;;;;;;;10137213;29;20039;-58
2024/02/11 19:46:47;;;;;;;4.25;1.80;;;;;;;;;;10130469;29;20138;-59
2024/02/11 19:51:48;;;;;;;1.65;1.20;;;;;;;;;;10125990;29;20054;-60
2024/02/11 19:56:49;;;;;;;2.80;1.50;;;;;;;;;;10132669;29;20166;-58
2024/02/11 20:01:50;;;;;;;11.00;2.00;;;;;;;;;;10126718;29;20036;-60
2024/02/11 20:06:51;;;;;;;8.20;1.38;;;;;;;;;;10140178;29;20523;-60
2024/02/11 20:11:52;;;;;;;5.53;1.95;;;;;;;;;;10126740;29;20123;-59
2024/02/11 20:16:52;;;;;;;6.68;1.75;;;;;;;;;;10137375;28;20603;-62
2024/02/11 20:21:53;;;;;;;3.03;1.65;;;;;;;;;;10133081;29;20143;-59
2024/02/11 20:26:54;;;;;;;6.38;1.25;;;;;;;;;;10132507;29;20063;-62
2024/02/11 20:31:56;;;;;;;7.30;1.67;;;;;;;;;;10132123;29;20134;-60
2024/02/11 20:36:57;;;;;;;2.28;1.40;;;;;;;;;;10117690;29;20551;-61
2024/02/11 20:41:59;;;;;;;6.75;2.30;;;;;;;;;;10140309;29;20044;-60
2024/02/11 20:47:00;;;;;;;8.35;2.65;;;;;;;;;;10171341;29;20094;-61
2024/02/11 20:52:00;;;;;;;10.35;2.40;;;;;;;;;;10137428;29;20121;-61
2024/02/11 20:57:02;;;;;;;6.70;2.45;;;;;;;;;;10138324;29;20256;-62
2024/02/11 21:02:05;;;;;;;6.38;2.08;;;;;;;;;;10145387;29;20066;-62
2024/02/11 21:07:06;;;;;;;10.73;2.00;;;;;;;;;;10146825;29;20052;-60
2024/02/11 21:12:07;;;;;;;5.30;1.90;;;;;;;;;;10138268;29;20039;-60
2024/02/11 21:17:09;;;;;;;11.50;1.98;;;;;;;;;;10148143;29;20039;-62
2024/02/11 21:22:14;;;;;;;10.02;2.10;;;;;;;;;;10144088;29;20063;-60
2024/02/11 21:27:18;;;;;;;4.40;1.73;;;;;;;;;;10146577;29;20049;-62
2024/02/11 21:32:19;;;;;;;5.40;2.13;;;;;;;;;;10145122;29;20032;-59
2024/02/11 21:37:20;;;;;;;4.32;1.77;;;;;;;;;;10137707;29;20641;-59
2024/02/11 21:42:20;;;;;;;3.75;1.80;;;;;;;;;;10143107;29;20039;-60
2024/02/11 21:47:22;;;;;;;10.52;2.00;;;;;;;;;;10142028;29;20501;-59
2024/02/11 21:52:22;;;;;;;4.45;1.50;;;;;;;;;;10147958;29;20027;-61
2024/02/11 21:57:23;;;;;;;3.20;1.70;;;;;;;;;;10145981;29;20503;-59
2024/02/11 22:02:24;;;;;;;4.85;1.75;;;;;;;;;;10140244;29;20755;-59
2024/02/11 22:07:25;;;;;;;4.95;1.92;;;;;;;;;;10140309;29;20070;-58
2024/02/11 22:12:26;;;;;;;4.78;1.90;;;;;;;;;;10150515;29;20040;-59
2024/02/11 22:17:29;;;;;;;3.78;1.40;;;;;;;;;;10151018;29;20522;-59
2024/02/11 22:22:30;;;;;;;4.45;1.90;;;;;;;;;;10147003;29;20043;-58
2024/02/11 22:27:31;;;;;;;2.65;1.77;;;;;;;;;;10151026;29;20123;-58
2024/02/11 22:32:33;;;;;;;2.42;1.20;;;;;;;;;;10147300;29;21012;-59
2024/02/11 22:37:34;;;;;;;3.40;1.90;;;;;;;;;;10139784;29;20054;-59
2024/02/11 22:42:35;;;;;;;3.47;1.58;;;;;;;;;;10143923;29;20036;-58
2024/02/11 22:47:35;;;;;;;3.90;1.45;;;;;;;;;;10151648;29;20040;-59
2024/02/11 22:52:37;;;;;;;3.25;1.70;;;;;;;;;;10156098;29;20523;-59
2024/02/11 22:57:38;;;;;;;5.30;1.75;;;;;;;;;;10151812;29;20114;-60
2024/02/11 23:02:38;;;;;;;4.18;1.60;;;;;;;;;;10202400;29;20172;-60
2024/02/11 23:07:39;;;;;;;3.72;1.42;;;;;;;;;;10208201;29;20487;-62
2024/02/11 23:12:41;;;;;;;3.88;1.70;;;;;;;;;;10209009;29;20028;-60
2024/02/11 23:17:42;;;;;;;5.63;1.70;;;;;;;;;;10209439;29;20036;-64
2024/02/11 23:22:46;;;;;;;2.92;1.70;;;;;;;;;;10211875;29;20036;-62
2024/02/11 23:27:48;;;;;;;3.63;1.48;;;;;;;;;;10208356;29;20199;-62
2024/02/11 23:32:49;;;;;;;2.75;1.50;;;;;;;;;;10207730;29;20035;-62
2024/02/11 23:37:51;;;;;;;4.22;1.70;;;;;;;;;;10209051;29;21000;-60
2024/02/11 23:42:53;;;;;;;2.00;1.60;;;;;;;;;;10200004;29;20035;-61
2024/02/11 23:47:53;;;;;;;1.67;1.40;;;;;;;;;;10208198;29;20028;-61
2024/02/11 23:52:54;;;;;;;3.30;1.77;;;;;;;;;;10208287;29;20024;-63
2024/02/11 23:57:55;;;;;;;3.65;1.90;;;;;;;;;;10208320;29;20027;-60
